createdAt,value
2018-05-10T00:00:43.631Z,6.23
2018-05-10T00:03:11.401Z,6.50
2018-05-10T00:05:37.693Z,6.87
2018-05-10T00:08:04.674Z,6.50
2018-05-10T00:10:30.836Z,9.50
2018-05-10T00:12:57.124Z,10.20
2018-05-10T00:15:23.293Z,7.17
2018-05-10T00:17:49.504Z,7.03
2018-05-10T00:20:15.708Z,9.03
2018-05-10T00:25:32.909Z,7.70
2018-05-10T00:27:59.878Z,7.80
2018-05-10T00:30:26.909Z,7.17
2018-05-10T00:32:53.833Z,8.80
2018-05-10T00:35:20.050Z,10.03
2018-05-10T00:37:46.303Z,10.13
2018-05-10T00:40:12.532Z,5.80
2018-05-10T00:42:38.721Z,6.03
2018-05-10T00:45:04.887Z,8.00
2018-05-10T00:47:31.105Z,6.00
2018-05-10T00:49:57.296Z,6.90
2018-05-10T00:52:23.509Z,9.47
2018-05-10T00:54:51.878Z,11.80
2018-05-10T00:57:18.911Z,5.70
2018-05-10T00:59:45.820Z,6.10
2018-05-10T01:02:12.075Z,5.43
2018-05-10T01:04:38.245Z,7.77
2018-05-10T01:07:04.406Z,6.57
2018-05-10T01:09:30.593Z,8.53
2018-05-10T01:11:56.835Z,8.70
2018-05-10T01:14:22.989Z,6.53
2018-05-10T01:16:49.205Z,8.13
2018-05-10T01:19:17.542Z,5.80
2018-05-10T01:21:43.757Z,8.63
2018-05-10T01:24:10.730Z,6.37
2018-05-10T01:26:36.900Z,6.57
2018-05-10T01:29:03.476Z,7.60
2018-05-10T01:31:30.380Z,5.90
2018-05-10T01:33:56.553Z,6.17
2018-05-10T01:36:23.477Z,7.17
2018-05-10T01:38:49.732Z,6.07
2018-05-10T01:41:16.644Z,5.50
2018-05-10T01:43:42.825Z,9.40
2018-05-10T01:46:09.009Z,7.07
2018-05-10T01:48:35.181Z,6.40
2018-05-10T01:51:01.357Z,5.67
2018-05-10T01:53:27.565Z,5.20
2018-05-10T01:55:53.756Z,6.53
2018-05-10T01:58:19.931Z,5.60
2018-05-10T02:00:46.117Z,5.70
2018-05-10T02:03:12.343Z,4.93
2018-05-10T02:05:38.542Z,5.37
2018-05-10T02:08:04.697Z,7.07
2018-05-10T02:10:30.889Z,5.00
2018-05-10T02:12:57.103Z,6.60
2018-05-10T02:15:23.280Z,6.00
2018-05-10T02:17:50.194Z,9.27
2018-05-10T02:20:16.411Z,5.20
2018-05-10T02:22:42.601Z,6.60
2018-05-10T02:25:08.796Z,6.23
2018-05-10T02:27:35.708Z,6.80
2018-05-10T02:30:01.958Z,7.03
2018-05-10T02:32:28.111Z,6.80
2018-05-10T02:34:54.316Z,9.97
2018-05-10T02:37:20.547Z,5.90
2018-05-10T02:39:47.473Z,5.93
2018-05-10T02:42:13.661Z,9.57
2018-05-10T02:44:40.669Z,7.93
2018-05-10T02:47:07.626Z,7.60
2018-05-10T02:49:34.559Z,5.90
2018-05-10T02:52:01.500Z,7.30
2018-05-10T02:54:27.683Z,7.63
2018-05-10T02:56:53.913Z,7.40
2018-05-10T02:59:20.862Z,8.50
2018-05-10T03:01:47.088Z,7.53
2018-05-10T03:04:13.258Z,9.10
2018-05-10T03:06:40.985Z,9.60
2018-05-10T03:09:07.186Z,10.53
2018-05-10T03:11:33.389Z,8.10
2018-05-10T03:13:59.949Z,9.80
2018-05-10T03:16:26.202Z,10.73
2018-05-10T03:18:52.373Z,12.00
2018-05-10T03:21:18.571Z,9.30
2018-05-10T03:23:44.780Z,7.20
2018-05-10T03:26:10.975Z,7.93
2018-05-10T03:28:37.939Z,7.40
2018-05-10T03:31:04.190Z,10.40
2018-05-10T03:33:30.404Z,7.67
2018-05-10T03:35:56.662Z,8.33
2018-05-10T03:38:22.852Z,8.87
2018-05-10T03:40:49.062Z,8.43
2018-05-10T03:43:16.033Z,8.77
2018-05-10T03:45:42.264Z,7.77
2018-05-10T03:48:08.480Z,7.63
2018-05-10T03:50:35.426Z,11.70
2018-05-10T03:53:02.328Z,10.10
2018-05-10T03:55:28.541Z,9.50
2018-05-10T03:57:54.717Z,8.50
2018-05-10T04:00:21.075Z,15.73
2018-05-10T04:06:07.935Z,10.83
2018-05-10T04:08:46.318Z,12.40
2018-05-10T04:11:30.513Z,12.80
2018-05-10T04:13:56.727Z,18.80
2018-05-10T04:16:22.972Z,20.63
2018-05-10T04:18:51.031Z,25.93
2018-05-10T04:21:17.253Z,25.17
2018-05-10T04:23:43.485Z,27.87
2018-05-10T04:26:09.694Z,27.20
2018-05-10T04:28:35.887Z,27.47
2018-05-10T04:31:02.838Z,27.10
2018-05-10T04:33:29.886Z,25.90
2018-05-10T04:35:56.928Z,29.50
2018-05-10T04:38:24.010Z,30.53
2018-05-10T04:40:50.183Z,30.20
2018-05-10T04:43:16.388Z,30.47
2018-05-10T04:45:42.546Z,26.53
2018-05-10T04:48:08.760Z,26.73
2018-05-10T04:50:34.949Z,33.23
2018-05-10T04:53:01.153Z,29.97
2018-05-10T04:55:28.055Z,30.10
2018-05-10T04:57:54.269Z,34.50
2018-05-10T05:00:20.435Z,32.90
2018-05-10T05:02:46.633Z,26.77
2018-05-10T05:05:12.822Z,34.77
2018-05-10T05:07:38.972Z,30.17
2018-05-10T05:10:06.262Z,33.93
2018-05-10T05:12:32.457Z,28.40
2018-05-10T05:14:58.659Z,32.87
2018-05-10T05:17:25.174Z,30.73
2018-05-10T05:19:52.114Z,37.87
2018-05-10T05:22:18.284Z,40.47
2018-05-10T05:24:44.457Z,41.17
2018-05-10T05:27:10.646Z,38.73
2018-05-10T05:29:36.834Z,44.93
2018-05-10T05:32:03.774Z,47.83
2018-05-10T05:34:30.687Z,38.00
2018-05-10T05:36:56.873Z,41.37
2018-05-10T05:39:23.079Z,37.70
2018-05-10T05:41:50.010Z,47.60
2018-05-10T05:44:16.244Z,38.67
2018-05-10T05:46:42.426Z,34.73
2018-05-10T05:49:08.597Z,41.40
2018-05-10T05:51:34.958Z,46.07
2018-05-10T05:54:01.903Z,37.63
2018-05-10T05:56:28.815Z,41.50
2018-05-10T05:58:54.994Z,38.00
2018-05-10T06:01:21.202Z,48.10
2018-05-10T06:03:48.101Z,44.77
2018-05-10T06:06:14.405Z,49.87
2018-05-10T06:08:40.647Z,37.80
2018-05-10T06:11:06.757Z,41.80
2018-05-10T06:13:32.964Z,40.17
2018-05-10T06:15:59.979Z,41.53
2018-05-10T06:18:26.103Z,43.23
2018-05-10T06:20:52.303Z,41.87
2018-05-10T06:23:18.497Z,41.57
2018-05-10T06:25:45.397Z,41.07
2018-05-10T06:28:11.611Z,40.13
2018-05-10T06:30:38.593Z,41.83
2018-05-10T06:33:04.824Z,38.73
2018-05-10T06:35:31.016Z,38.97
2018-05-10T06:37:57.183Z,50.93
2018-05-10T06:40:24.106Z,47.07
2018-05-10T06:42:50.277Z,43.63
2018-05-10T06:45:17.318Z,39.60
2018-05-10T06:47:44.293Z,38.03
2018-05-10T06:50:10.600Z,37.90
2018-05-10T06:52:37.530Z,37.43
2018-05-10T06:55:04.521Z,37.60
2018-05-10T06:57:30.797Z,33.70
2018-05-10T06:59:57.023Z,42.13
2018-05-10T07:02:23.261Z,40.13
2018-05-10T07:04:49.469Z,50.10
2018-05-10T07:07:15.695Z,52.77
2018-05-10T07:09:42.013Z,47.40
2018-05-10T07:12:08.134Z,55.63
2018-05-10T07:14:34.376Z,36.30
2018-05-10T07:17:00.549Z,46.50
2018-05-10T07:19:27.538Z,48.30
2018-05-10T07:21:53.675Z,42.73
2018-05-10T07:24:19.894Z,40.50
2018-05-10T07:26:46.102Z,44.93
2018-05-10T07:29:12.327Z,41.80
2018-05-10T07:31:38.521Z,47.73
2018-05-10T07:34:04.708Z,27.40
2018-05-10T07:36:30.984Z,41.63
2018-05-10T07:38:57.974Z,49.57
2018-05-10T07:41:24.185Z,37.93
2018-05-10T07:43:50.440Z,37.77
2018-05-10T07:46:16.695Z,42.90
2018-05-10T07:48:42.869Z,36.47
2018-05-10T07:51:09.089Z,30.43
2018-05-10T07:53:36.097Z,41.83
2018-05-10T07:56:02.317Z,32.50
2018-05-10T07:58:28.502Z,36.53
2018-05-10T08:00:54.702Z,34.17
2018-05-10T08:03:20.882Z,42.53
2018-05-10T08:05:47.056Z,43.07
2018-05-10T08:08:13.268Z,36.50
2018-05-10T08:10:39.485Z,35.73
2018-05-10T08:13:06.657Z,36.70
2018-05-10T08:15:32.897Z,39.00
2018-05-10T08:17:59.147Z,35.43
2018-05-10T08:20:26.117Z,39.27
2018-05-10T08:22:52.342Z,31.07
2018-05-10T08:25:18.555Z,35.37
2018-05-10T08:27:45.849Z,32.33
2018-05-10T08:30:12.278Z,32.23
2018-05-10T08:32:38.602Z,30.03
2018-05-10T08:35:04.861Z,30.93
2018-05-10T08:37:31.106Z,34.70
2018-05-10T08:39:57.308Z,32.80
2018-05-10T08:42:23.740Z,27.03
2018-05-10T08:44:49.956Z,30.43
2018-05-10T08:47:16.185Z,32.40
2018-05-10T08:49:42.373Z,28.40
2018-05-10T08:52:09.363Z,26.40
2018-05-10T08:54:35.634Z,29.23
2018-05-10T08:57:01.898Z,33.10
2018-05-10T08:59:28.258Z,43.23
2018-05-10T09:01:54.448Z,26.53
2018-05-10T09:04:21.429Z,27.60
2018-05-10T09:06:47.648Z,27.00
2018-05-10T09:09:13.953Z,25.20
2018-05-10T09:11:41.028Z,25.80
2018-05-10T09:14:07.355Z,23.57
2018-05-10T09:16:33.582Z,23.83
2018-05-10T09:18:59.803Z,26.13
2018-05-10T09:21:26.170Z,18.43
2018-05-10T09:23:52.360Z,30.20
2018-05-10T09:26:18.618Z,22.33
2018-05-10T09:28:44.827Z,29.40
2018-05-10T09:31:11.035Z,19.50
2018-05-10T09:33:37.267Z,25.43
2018-05-10T09:36:04.215Z,23.90
2018-05-10T09:38:30.417Z,21.63
2018-05-10T09:40:56.685Z,24.03
2018-05-10T09:43:22.878Z,25.87
2018-05-10T09:45:49.098Z,28.37
2018-05-10T09:48:15.665Z,22.43
2018-05-10T09:50:41.885Z,17.57
2018-05-10T09:53:08.855Z,21.80
2018-05-10T09:55:36.543Z,27.53
2018-05-10T09:58:02.806Z,19.80
2018-05-10T10:00:29.016Z,23.03
2018-05-10T10:02:55.280Z,19.43
2018-05-10T10:05:22.282Z,23.03
2018-05-10T10:07:48.535Z,24.67
2018-05-10T10:10:14.739Z,21.60
2018-05-10T10:12:40.978Z,21.70
2018-05-10T10:15:07.163Z,22.20
2018-05-10T10:17:33.442Z,19.73
2018-05-10T10:19:59.611Z,23.13
2018-05-10T10:32:15.857Z,24.50
2018-05-10T10:34:42.082Z,25.00
2018-05-10T10:37:08.320Z,23.13
2018-05-10T10:39:35.319Z,26.83
2018-05-10T10:42:01.595Z,26.23
2018-05-10T10:44:28.877Z,23.13
2018-05-10T10:46:55.167Z,21.80
2018-05-10T10:49:21.388Z,27.30
2018-05-10T10:51:47.584Z,24.47
2018-05-10T11:03:59.078Z,16.83
2018-05-10T11:06:25.332Z,17.07
2018-05-10T11:08:52.271Z,22.10
2018-05-10T11:11:18.513Z,22.07
2018-05-10T11:13:45.489Z,22.63
2018-05-10T11:16:11.731Z,21.27
2018-05-10T11:18:37.921Z,22.07
2018-05-10T11:21:04.145Z,20.40
2018-05-10T11:23:30.360Z,24.37
2018-05-10T11:25:57.419Z,18.27
2018-05-10T11:28:24.396Z,26.73
2018-05-10T11:30:50.633Z,24.50
2018-05-10T11:33:16.912Z,25.13
2018-05-10T11:35:43.087Z,20.13
2018-05-10T11:38:09.686Z,24.60
2018-05-10T11:40:36.758Z,30.87
2018-05-10T11:43:02.959Z,21.33
2018-05-10T11:45:29.939Z,22.73
2018-05-10T11:47:56.837Z,25.97
2018-05-10T11:50:37.950Z,25.13
2018-05-10T11:53:04.172Z,21.67
2018-05-10T11:55:31.162Z,22.60
2018-05-10T11:57:57.444Z,21.53
2018-05-10T12:00:25.170Z,21.43
2018-05-10T12:02:51.394Z,21.23
2018-05-10T12:05:17.673Z,27.60
2018-05-10T12:07:44.831Z,22.60
2018-05-10T12:10:13.652Z,22.60
2018-05-10T12:12:40.830Z,18.90
2018-05-10T12:15:07.307Z,21.00
2018-05-10T12:17:36.940Z,22.10
2018-05-10T12:20:04.007Z,25.03
2018-05-10T12:22:30.288Z,18.57
2018-05-10T12:24:57.319Z,19.70
2018-05-10T12:27:24.318Z,20.17
2018-05-10T12:29:50.563Z,21.30
2018-05-10T12:32:16.765Z,22.67
2018-05-10T12:34:43.021Z,25.93
2018-05-10T12:37:09.204Z,22.07
2018-05-10T12:39:35.416Z,24.87
2018-05-10T12:42:02.995Z,24.93
2018-05-10T12:44:29.257Z,23.07
2018-05-10T12:46:55.683Z,24.97
2018-05-10T12:49:21.896Z,25.13
2018-05-10T12:51:48.079Z,28.97
2018-05-10T12:54:14.631Z,26.93
2018-05-10T12:56:41.533Z,25.60
2018-05-10T12:59:07.764Z,30.00
2018-05-10T13:01:33.940Z,29.47
2018-05-10T13:04:00.854Z,22.90
2018-05-10T13:06:27.025Z,28.10
2018-05-10T13:08:53.215Z,24.17
2018-05-10T13:11:19.433Z,29.20
2018-05-10T13:13:45.661Z,30.47
2018-05-10T13:16:11.956Z,29.43
2018-05-10T13:18:38.079Z,23.73
2018-05-10T13:21:04.434Z,24.87
2018-05-10T13:23:30.655Z,26.30
2018-05-10T13:25:57.324Z,29.50
2018-05-10T13:28:23.622Z,24.50
2018-05-10T13:30:49.844Z,25.50
2018-05-10T13:33:16.024Z,24.43
2018-05-10T13:35:42.295Z,22.43
2018-05-10T13:38:08.524Z,23.37
2018-05-10T13:40:34.747Z,21.23
2018-05-10T13:43:00.907Z,20.80
2018-05-10T13:45:27.169Z,19.97
2018-05-10T13:47:54.117Z,19.43
2018-05-10T13:50:21.136Z,18.47
2018-05-10T13:52:47.332Z,15.60
2018-05-10T13:55:14.259Z,14.43
2018-05-10T13:57:41.262Z,20.00
2018-05-10T14:00:08.169Z,14.40
2018-05-10T14:02:34.395Z,12.83
2018-05-10T14:05:04.134Z,17.53
2018-05-10T14:07:30.332Z,18.87
2018-05-10T14:09:56.546Z,12.60
2018-05-10T14:12:23.497Z,16.67
2018-05-10T14:14:50.498Z,11.10
2018-05-10T14:17:17.110Z,15.10
2018-05-10T14:19:44.413Z,12.47
2018-05-10T14:22:10.673Z,13.23
2018-05-10T14:24:37.910Z,25.53
2018-05-10T14:27:04.962Z,12.80
2018-05-10T14:29:31.921Z,14.83
2018-05-10T14:31:58.162Z,15.60
2018-05-10T14:34:25.133Z,12.00
2018-05-10T14:36:51.323Z,12.47
2018-05-10T14:39:17.574Z,13.50
2018-05-10T14:41:43.772Z,13.83
2018-05-10T14:44:10.754Z,8.00
2018-05-10T14:46:36.988Z,11.47
2018-05-10T14:49:03.234Z,11.07
2018-05-10T14:51:29.993Z,10.33
2018-05-10T14:53:56.229Z,10.73
2018-05-10T14:56:22.444Z,9.87
2018-05-10T14:58:48.660Z,9.50
2018-05-10T15:01:14.834Z,13.17
2018-05-10T15:03:41.046Z,13.83
2018-05-10T15:06:07.990Z,12.93
2018-05-10T15:08:34.959Z,11.43
2018-05-10T15:11:01.993Z,12.43
2018-05-10T15:13:28.985Z,14.73
2018-05-10T15:15:55.205Z,10.97
2018-05-10T15:18:21.377Z,10.07
2018-05-10T15:20:47.585Z,16.33
2018-05-10T15:23:13.764Z,13.03
2018-05-10T15:25:40.699Z,14.53
2018-05-10T15:28:07.627Z,9.30
2018-05-10T15:30:33.899Z,13.20
2018-05-10T15:33:00.127Z,21.10
2018-05-10T15:35:26.432Z,12.07
2018-05-10T15:37:52.568Z,12.50
2018-05-10T15:40:19.531Z,13.47
2018-05-10T15:42:45.765Z,13.13
2018-05-10T15:45:12.095Z,18.17
2018-05-10T15:47:38.288Z,10.60
2018-05-10T15:50:05.253Z,13.47
2018-05-10T15:52:32.216Z,13.10
2018-05-10T15:54:58.443Z,13.93
2018-05-10T15:57:24.649Z,19.10
2018-05-10T15:59:53.358Z,16.03
2018-05-10T16:02:20.438Z,18.73
2018-05-10T16:04:46.654Z,14.37
2018-05-10T16:07:12.932Z,16.10
2018-05-10T16:09:39.072Z,13.77
2018-05-10T16:12:06.049Z,13.93
2018-05-10T16:14:32.296Z,13.63
2018-05-10T16:16:58.562Z,14.03
2018-05-10T16:19:24.868Z,16.13
2018-05-10T16:21:51.118Z,16.37
2018-05-10T16:24:18.230Z,14.20
2018-05-10T16:26:44.485Z,22.60
2018-05-10T16:29:11.456Z,11.30
2018-05-10T16:31:39.704Z,15.43
2018-05-10T16:34:05.977Z,13.70
2018-05-10T16:36:32.936Z,17.10
2018-05-10T16:38:59.209Z,20.17
2018-05-10T16:41:25.474Z,20.70
2018-05-10T16:43:52.455Z,18.03
2018-05-10T16:46:18.716Z,16.50
2018-05-10T16:48:44.966Z,17.13
2018-05-10T16:51:11.238Z,19.73
2018-05-10T16:53:37.447Z,20.00
2018-05-10T16:56:05.104Z,17.37
2018-05-10T16:58:32.682Z,15.97
2018-05-10T17:00:58.993Z,20.03
2018-05-10T17:03:25.945Z,14.50
2018-05-10T17:05:52.892Z,16.70
2018-05-10T17:08:19.871Z,14.30
2018-05-10T17:10:46.110Z,19.27
2018-05-10T17:13:12.316Z,17.30
2018-05-10T17:15:38.535Z,20.80
2018-05-10T17:18:04.755Z,14.50
2018-05-10T17:20:31.717Z,15.23
2018-05-10T17:22:58.042Z,15.43
2018-05-10T17:25:24.381Z,17.50
2018-05-10T17:27:50.571Z,16.67
2018-05-10T17:30:17.526Z,13.53
2018-05-10T17:32:44.470Z,16.50
2018-05-10T17:35:11.472Z,15.70
2018-05-10T17:37:37.671Z,14.73
2018-05-10T17:40:03.870Z,15.60
2018-05-10T17:42:30.832Z,13.63
2018-05-10T17:44:57.861Z,16.77
2018-05-10T17:47:24.107Z,16.10
2018-05-10T17:49:51.098Z,23.47
2018-05-10T17:52:18.181Z,19.90
2018-05-10T17:54:44.478Z,15.03
2018-05-10T17:57:10.692Z,21.97
2018-05-10T17:59:36.993Z,22.33
2018-05-10T18:02:03.997Z,21.50
2018-05-10T18:04:30.936Z,28.10
2018-05-10T18:06:57.206Z,26.30
2018-05-10T18:09:24.148Z,21.03
2018-05-10T18:11:51.342Z,23.20
2018-05-10T18:14:18.395Z,19.10
2018-05-10T18:16:44.634Z,17.97
2018-05-10T18:19:10.916Z,17.13
2018-05-10T18:21:37.997Z,18.90
2018-05-10T18:24:04.249Z,18.53
2018-05-10T18:26:30.472Z,15.03
2018-05-10T18:28:56.774Z,13.40
2018-05-10T18:31:23.022Z,15.63
2018-05-10T18:33:49.254Z,17.07
2018-05-10T18:36:16.509Z,14.73
2018-05-10T18:38:42.746Z,14.57
2018-05-10T18:41:09.096Z,15.37
2018-05-10T18:43:35.221Z,15.27
2018-05-10T18:46:01.396Z,14.47
2018-05-10T18:48:28.394Z,17.07
2018-05-10T18:50:54.624Z,10.60
2018-05-10T18:53:20.813Z,14.10
2018-05-10T18:55:47.759Z,18.03
2018-05-10T18:58:14.065Z,20.67
2018-05-10T19:00:41.027Z,15.90
2018-05-10T19:03:07.241Z,16.00
2018-05-10T19:05:34.328Z,15.87
2018-05-10T19:08:00.547Z,17.43
2018-05-10T19:10:26.698Z,14.03
2018-05-10T19:12:52.900Z,15.20
2018-05-10T19:15:19.165Z,14.70
2018-05-10T19:17:46.031Z,17.80
2018-05-10T19:20:12.304Z,22.63
2018-05-10T19:22:38.579Z,21.40
2018-05-10T19:25:04.800Z,16.03
2018-05-10T19:27:31.032Z,21.23
2018-05-10T19:29:57.249Z,13.50
2018-05-10T19:32:23.498Z,15.00
2018-05-10T19:34:51.144Z,14.77
2018-05-10T19:37:17.421Z,16.83
2018-05-10T19:39:43.606Z,16.87
2018-05-10T19:42:09.821Z,22.67
2018-05-10T19:44:36.067Z,16.33
2018-05-10T19:47:02.298Z,11.43
2018-05-10T19:49:28.614Z,16.23
2018-05-10T19:51:54.833Z,16.03
2018-05-10T19:54:21.075Z,16.20
2018-05-10T19:56:47.331Z,19.13
2018-05-10T19:59:13.509Z,18.00
2018-05-10T20:01:39.717Z,15.30
2018-05-10T20:04:06.345Z,14.37
2018-05-10T20:06:33.350Z,13.77
2018-05-10T20:08:59.553Z,15.77
2018-05-10T20:11:25.753Z,13.83
2018-05-10T20:13:52.877Z,16.20
2018-05-10T20:16:18.970Z,17.07
2018-05-10T20:18:45.226Z,12.43
2018-05-10T20:21:11.578Z,14.57
2018-05-10T20:23:38.515Z,16.00
2018-05-10T20:26:04.747Z,18.00
2018-05-10T20:28:31.749Z,16.53
2018-05-10T20:30:58.032Z,14.07
2018-05-10T20:33:25.055Z,15.70
2018-05-10T20:35:51.379Z,14.10
2018-05-10T20:38:18.993Z,18.47
2018-05-10T20:40:45.185Z,15.20
2018-05-10T20:43:13.098Z,18.07
2018-05-10T20:45:39.271Z,15.77
2018-05-10T20:48:05.456Z,15.90
2018-05-10T20:50:31.809Z,13.60
2018-05-10T20:52:57.925Z,12.30
2018-05-10T20:55:24.129Z,14.73
2018-05-10T20:57:51.134Z,12.63
2018-05-10T21:00:18.146Z,13.00
2018-05-10T21:02:44.455Z,13.70
2018-05-10T21:05:12.853Z,13.33
2018-05-10T21:07:39.087Z,13.40
2018-05-10T21:10:05.469Z,11.83
2018-05-10T21:12:39.962Z,14.40
2018-05-10T21:15:06.181Z,15.93
2018-05-10T21:17:32.408Z,18.77
2018-05-10T21:19:58.612Z,12.23
2018-05-10T21:22:24.826Z,14.43
2018-05-10T21:24:51.803Z,18.47
2018-05-10T21:27:18.062Z,16.27
2018-05-10T21:29:44.292Z,13.73
2018-05-10T21:32:10.469Z,11.57
2018-05-10T21:34:38.209Z,13.47
2018-05-10T21:37:04.407Z,13.33
2018-05-10T21:39:30.687Z,11.23
2018-05-10T21:41:57.726Z,10.73
2018-05-10T21:44:24.738Z,17.17
2018-05-10T21:46:50.985Z,17.20
2018-05-10T21:49:29.634Z,14.30
2018-05-10T21:51:55.874Z,10.27
2018-05-10T21:54:22.132Z,15.43
2018-05-10T21:56:48.353Z,11.13
2018-05-10T21:59:14.581Z,17.90
2018-05-10T22:01:40.849Z,20.20
2018-05-10T22:04:07.469Z,12.43
2018-05-10T22:06:33.672Z,16.87
2018-05-10T22:08:59.918Z,19.13
2018-05-10T22:11:26.142Z,14.87
2018-05-10T22:13:52.837Z,14.27
2018-05-10T22:16:19.764Z,13.30
2018-05-10T22:18:46.740Z,13.27
2018-05-10T22:21:13.726Z,13.23
2018-05-10T22:23:39.938Z,13.20
2018-05-10T22:26:06.155Z,14.03
2018-05-10T22:28:32.481Z,11.73
2018-05-10T22:30:58.694Z,13.90
2018-05-10T22:33:25.650Z,14.30
2018-05-10T22:35:52.631Z,14.13
2018-05-10T22:38:18.833Z,12.60
2018-05-10T22:40:45.039Z,19.73
2018-05-10T22:43:12.014Z,13.23
2018-05-10T22:45:39.115Z,15.47
2018-05-10T22:48:05.985Z,16.33
2018-05-10T22:50:32.102Z,17.00
2018-05-10T22:52:59.027Z,16.20
2018-05-10T22:55:25.208Z,17.03
2018-05-10T22:57:51.802Z,18.30
2018-05-10T23:00:18.722Z,18.90
2018-05-10T23:02:44.960Z,16.77
2018-05-10T23:05:11.137Z,14.47
2018-05-10T23:07:37.374Z,14.10
2018-05-10T23:10:03.625Z,15.30
2018-05-10T23:12:29.852Z,15.03
2018-05-10T23:14:56.078Z,11.90
2018-05-10T23:17:22.296Z,11.93
2018-05-10T23:19:48.508Z,15.77
2018-05-10T23:22:14.734Z,15.77
2018-05-10T23:24:41.721Z,17.93
2018-05-10T23:27:07.943Z,13.00
2018-05-10T23:29:34.192Z,15.40
2018-05-10T23:32:00.339Z,19.00
2018-05-10T23:34:26.549Z,14.50
2018-05-10T23:36:52.737Z,14.40
2018-05-10T23:39:18.934Z,12.80
2018-05-10T23:41:45.154Z,14.03
2018-05-10T23:44:12.828Z,10.93
2018-05-10T23:46:39.793Z,11.90
2018-05-10T23:49:06.026Z,10.23
2018-05-10T23:51:32.940Z,12.23
2018-05-10T23:53:59.192Z,7.27
2018-05-10T23:56:26.085Z,6.87
2018-05-10T23:59:07.233Z,13.97
